Accueil
METAR-TAF:

METAR-TAF

Aéroports :

Milton, Massachusetts, États-Unis

latitude: 42-12-44N, longitude: 071-06-53W, altitude: 192 m

Observation

Le bulletin a été fait il y a 38 minutes, à 06:51 UTC
Vent 9 kt de sud
Température 13°C
Humidité 82%
Pression 1006 hPa

METAR: KMQE 030651Z AUTO 18009KT 13/10 A2970 RMK AO1 SLP064 T01330100

Heure: 03:29 (07:29 UTC)


TAF: absent

Observations et prévisions météorologiques de plus de 4000 aéroports (messages METAR et TAF).

Les stations disponibles sont représentées par des disques jaunes et rouges sur la carte.

Passer la souris dessus pour voir le nom de la station.

Cliquer dessus pour voir les observations et prévisions météorologiques.

Pour changer de carte: cliquez sur les boutons verts avec une croix noire pour zoomer, sur le bouton vert avec un tiret pour effectuer un zoom arrière, ou sur les flèches vertes pour les cartes adjacentes.


METAR-TAF: